ABQ weather

Albuquerque International Sunport
Albuquerque, New Mexico, United States

Public forecast

Using degrees Fahrenheit for public forecast. Weather courtesy of forecast.io.

Current aviation weather report (METAR) for Albuquerque International Sunport

Retrieved 2020/02/26 21:52 UTC (1 hour ago):

KABQ 262152Z 00000KT 10SM CLR 06/M17 A3034 RMK AO2 SLP284 T00561172

Aviation forecast (TAF) for Albuquerque International Sunport

Retrieved 2020/02/26 18:22 UTC (5 hours ago):

TAF KABQ 261720Z 2618/2718 30007KT P6SM SKC FM270200 34004KT P6SM FEW250